sensor_id;sensor_type;location;lat;lon;timestamp;P1;durP1;ratioP1;P2;durP2;ratioP2
44214;SDS011;29884;47.450;19.124;2023-11-22T00:00:40;13.70;;;7.07;;
44214;SDS011;29884;47.450;19.124;2023-11-22T00:03:05;12.93;;;7.10;;
44214;SDS011;29884;47.450;19.124;2023-11-22T00:05:31;13.98;;;7.55;;
44214;SDS011;29884;47.450;19.124;2023-11-22T00:07:57;13.45;;;7.53;;
44214;SDS011;29884;47.450;19.124;2023-11-22T00:10:23;13.60;;;7.72;;
44214;SDS011;29884;47.450;19.124;2023-11-22T00:12:48;13.63;;;7.10;;
44214;SDS011;29884;47.450;19.124;2023-11-22T00:15:14;11.95;;;6.97;;
44214;SDS011;29884;47.450;19.124;2023-11-22T00:17:43;15.07;;;6.93;;
44214;SDS011;29884;47.450;19.124;2023-11-22T00:20:10;13.75;;;6.65;;
44214;SDS011;29884;47.450;19.124;2023-11-22T00:22:36;13.52;;;7.35;;
44214;SDS011;29884;47.450;19.124;2023-11-22T00:25:02;14.73;;;7.63;;
44214;SDS011;29884;47.450;19.124;2023-11-22T00:27:28;18.35;;;8.30;;
44214;SDS011;29884;47.450;19.124;2023-11-22T00:29:56;15.45;;;7.70;;
44214;SDS011;29884;47.450;19.124;2023-11-22T00:32:22;21.63;;;8.68;;
44214;SDS011;29884;47.450;19.124;2023-11-22T00:34:48;15.00;;;7.63;;
44214;SDS011;29884;47.450;19.124;2023-11-22T00:37:17;13.88;;;7.25;;
44214;SDS011;29884;47.450;19.124;2023-11-22T00:39:43;16.02;;;7.40;;
44214;SDS011;29884;47.450;19.124;2023-11-22T00:42:12;15.98;;;8.05;;
44214;SDS011;29884;47.450;19.124;2023-11-22T00:44:37;15.90;;;8.18;;
44214;SDS011;29884;47.450;19.124;2023-11-22T00:47:03;13.73;;;7.35;;
44214;SDS011;29884;47.450;19.124;2023-11-22T00:49:29;21.42;;;8.07;;
44214;SDS011;29884;47.450;19.124;2023-11-22T00:51:54;14.50;;;7.45;;
44214;SDS011;29884;47.450;19.124;2023-11-22T00:54:20;14.00;;;6.95;;
44214;SDS011;29884;47.450;19.124;2023-11-22T00:56:46;13.50;;;7.00;;
44214;SDS011;29884;47.450;19.124;2023-11-22T00:59:12;13.43;;;7.20;;
44214;SDS011;29884;47.450;19.124;2023-11-22T01:01:39;15.77;;;8.02;;
44214;SDS011;29884;47.450;19.124;2023-11-22T01:04:05;14.27;;;7.28;;
44214;SDS011;29884;47.450;19.124;2023-11-22T01:06:32;15.73;;;7.20;;
44214;SDS011;29884;47.450;19.124;2023-11-22T01:08:58;14.63;;;7.97;;
44214;SDS011;29884;47.450;19.124;2023-11-22T01:11:24;16.42;;;7.53;;
44214;SDS011;29884;47.450;19.124;2023-11-22T01:13:50;15.45;;;7.55;;
44214;SDS011;29884;47.450;19.124;2023-11-22T01:16:16;14.20;;;8.05;;
44214;SDS011;29884;47.450;19.124;2023-11-22T01:18:41;17.25;;;7.82;;
44214;SDS011;29884;47.450;19.124;2023-11-22T01:21:08;17.15;;;7.72;;
44214;SDS011;29884;47.450;19.124;2023-11-22T01:23:33;16.85;;;7.78;;
44214;SDS011;29884;47.450;19.124;2023-11-22T01:25:59;18.15;;;8.10;;
44214;SDS011;29884;47.450;19.124;2023-11-22T01:28:26;14.55;;;7.30;;
44214;SDS011;29884;47.450;19.124;2023-11-22T01:30:55;16.35;;;7.47;;
44214;SDS011;29884;47.450;19.124;2023-11-22T01:33:23;15.20;;;8.15;;
44214;SDS011;29884;47.450;19.124;2023-11-22T01:35:49;14.88;;;7.60;;
44214;SDS011;29884;47.450;19.124;2023-11-22T01:38:15;12.50;;;7.18;;
44214;SDS011;29884;47.450;19.124;2023-11-22T01:40:44;14.07;;;7.70;;
44214;SDS011;29884;47.450;19.124;2023-11-22T01:43:14;13.30;;;6.60;;
44214;SDS011;29884;47.450;19.124;2023-11-22T01:45:42;14.13;;;6.40;;
44214;SDS011;29884;47.450;19.124;2023-11-22T01:48:07;13.70;;;7.03;;
44214;SDS011;29884;47.450;19.124;2023-11-22T01:50:36;15.43;;;7.07;;
44214;SDS011;29884;47.450;19.124;2023-11-22T01:53:02;14.85;;;6.75;;
44214;SDS011;29884;47.450;19.124;2023-11-22T01:55:29;13.88;;;6.40;;
44214;SDS011;29884;47.450;19.124;2023-11-22T01:57:55;15.10;;;7.13;;
44214;SDS011;29884;47.450;19.124;2023-11-22T02:00:21;13.07;;;6.40;;
44214;SDS011;29884;47.450;19.124;2023-11-22T02:02:50;13.05;;;6.53;;
44214;SDS011;29884;47.450;19.124;2023-11-22T02:05:16;13.48;;;6.25;;
44214;SDS011;29884;47.450;19.124;2023-11-22T02:07:43;11.45;;;5.88;;
44214;SDS011;29884;47.450;19.124;2023-11-22T02:10:08;10.68;;;6.00;;
44214;SDS011;29884;47.450;19.124;2023-11-22T02:12:34;12.98;;;6.47;;
44214;SDS011;29884;47.450;19.124;2023-11-22T02:15:01;10.82;;;6.07;;
44214;SDS011;29884;47.450;19.124;2023-11-22T02:17:28;14.88;;;6.57;;
44214;SDS011;29884;47.450;19.124;2023-11-22T02:19:54;14.57;;;6.35;;
44214;SDS011;29884;47.450;19.124;2023-11-22T02:22:20;11.95;;;6.05;;
44214;SDS011;29884;47.450;19.124;2023-11-22T02:24:46;13.88;;;6.47;;
44214;SDS011;29884;47.450;19.124;2023-11-22T02:27:12;9.65;;;5.63;;
44214;SDS011;29884;47.450;19.124;2023-11-22T02:29:38;9.93;;;5.20;;
44214;SDS011;29884;47.450;19.124;2023-11-22T02:32:05;8.15;;;5.05;;
44214;SDS011;29884;47.450;19.124;2023-11-22T02:34:31;8.70;;;4.43;;
44214;SDS011;29884;47.450;19.124;2023-11-22T02:36:56;10.70;;;4.68;;
44214;SDS011;29884;47.450;19.124;2023-11-22T02:39:24;6.72;;;4.13;;
44214;SDS011;29884;47.450;19.124;2023-11-22T02:41:54;9.25;;;4.53;;
44214;SDS011;29884;47.450;19.124;2023-11-22T02:44:20;8.63;;;4.25;;
44214;SDS011;29884;47.450;19.124;2023-11-22T02:46:46;6.15;;;3.42;;
44214;SDS011;29884;47.450;19.124;2023-11-22T02:49:12;6.82;;;3.63;;
44214;SDS011;29884;47.450;19.124;2023-11-22T02:51:37;7.10;;;4.07;;
44214;SDS011;29884;47.450;19.124;2023-11-22T02:54:03;10.85;;;4.60;;
44214;SDS011;29884;47.450;19.124;2023-11-22T02:56:30;10.48;;;4.88;;
44214;SDS011;29884;47.450;19.124;2023-11-22T02:58:56;7.43;;;4.10;;
44214;SDS011;29884;47.450;19.124;2023-11-22T03:01:22;8.55;;;4.57;;
44214;SDS011;29884;47.450;19.124;2023-11-22T03:03:47;9.02;;;4.40;;
44214;SDS011;29884;47.450;19.124;2023-11-22T03:06:13;7.60;;;4.25;;
44214;SDS011;29884;47.450;19.124;2023-11-22T03:08:39;10.07;;;4.50;;
44214;SDS011;29884;47.450;19.124;2023-11-22T03:11:05;11.02;;;5.28;;
44214;SDS011;29884;47.450;19.124;2023-11-22T03:13:31;9.07;;;4.50;;
44214;SDS011;29884;47.450;19.124;2023-11-22T03:15:58;8.40;;;4.15;;
44214;SDS011;29884;47.450;19.124;2023-11-22T03:18:24;9.43;;;4.18;;
44214;SDS011;29884;47.450;19.124;2023-11-22T03:20:51;7.22;;;4.25;;
44214;SDS011;29884;47.450;19.124;2023-11-22T03:23:19;11.13;;;4.40;;
44214;SDS011;29884;47.450;19.124;2023-11-22T03:25:45;10.90;;;4.53;;
44214;SDS011;29884;47.450;19.124;2023-11-22T03:28:11;9.60;;;5.05;;
44214;SDS011;29884;47.450;19.124;2023-11-22T03:30:37;8.23;;;3.90;;
44214;SDS011;29884;47.450;19.124;2023-11-22T03:33:05;9.13;;;4.40;;
44214;SDS011;29884;47.450;19.124;2023-11-22T03:35:31;7.13;;;3.90;;
44214;SDS011;29884;47.450;19.124;2023-11-22T03:37:56;9.60;;;4.22;;
44214;SDS011;29884;47.450;19.124;2023-11-22T03:40:22;8.68;;;4.82;;
44214;SDS011;29884;47.450;19.124;2023-11-22T03:42:48;9.90;;;4.93;;
44214;SDS011;29884;47.450;19.124;2023-11-22T03:45:14;9.35;;;4.95;;
44214;SDS011;29884;47.450;19.124;2023-11-22T03:47:39;9.93;;;4.78;;
44214;SDS011;29884;47.450;19.124;2023-11-22T03:50:06;10.00;;;5.13;;
44214;SDS011;29884;47.450;19.124;2023-11-22T03:52:32;8.18;;;4.63;;
44214;SDS011;29884;47.450;19.124;2023-11-22T03:54:57;8.60;;;4.32;;
44214;SDS011;29884;47.450;19.124;2023-11-22T03:57:23;8.80;;;4.60;;
44214;SDS011;29884;47.450;19.124;2023-11-22T03:59:49;9.27;;;4.10;;
44214;SDS011;29884;47.450;19.124;2023-11-22T04:02:15;6.75;;;3.60;;
44214;SDS011;29884;47.450;19.124;2023-11-22T04:04:41;6.97;;;3.67;;
44214;SDS011;29884;47.450;19.124;2023-11-22T04:07:07;6.20;;;3.08;;
44214;SDS011;29884;47.450;19.124;2023-11-22T04:09:33;6.38;;;2.72;;
44214;SDS011;29884;47.450;19.124;2023-11-22T04:11:59;4.57;;;2.22;;
44214;SDS011;29884;47.450;19.124;2023-11-22T04:14:25;5.57;;;2.65;;
44214;SDS011;29884;47.450;19.124;2023-11-22T04:16:52;4.57;;;2.42;;
44214;SDS011;29884;47.450;19.124;2023-11-22T04:19:18;3.72;;;2.45;;
44214;SDS011;29884;47.450;19.124;2023-11-22T04:21:43;5.25;;;2.53;;
44214;SDS011;29884;47.450;19.124;2023-11-22T04:24:09;3.83;;;2.10;;
44214;SDS011;29884;47.450;19.124;2023-11-22T04:26:37;4.88;;;2.60;;
44214;SDS011;29884;47.450;19.124;2023-11-22T04:29:03;5.05;;;2.72;;
44214;SDS011;29884;47.450;19.124;2023-11-22T04:31:29;6.10;;;2.60;;
44214;SDS011;29884;47.450;19.124;2023-11-22T04:33:58;6.55;;;2.78;;
44214;SDS011;29884;47.450;19.124;2023-11-22T04:36:25;4.93;;;2.30;;
44214;SDS011;29884;47.450;19.124;2023-11-22T04:38:51;3.60;;;2.10;;
44214;SDS011;29884;47.450;19.124;2023-11-22T04:41:16;4.00;;;2.10;;
44214;SDS011;29884;47.450;19.124;2023-11-22T04:43:43;3.45;;;1.77;;
44214;SDS011;29884;47.450;19.124;2023-11-22T04:46:10;4.10;;;2.10;;
44214;SDS011;29884;47.450;19.124;2023-11-22T04:48:35;3.58;;;1.92;;
44214;SDS011;29884;47.450;19.124;2023-11-22T04:51:03;3.95;;;1.92;;
44214;SDS011;29884;47.450;19.124;2023-11-22T04:53:29;4.82;;;2.35;;
44214;SDS011;29884;47.450;19.124;2023-11-22T04:55:54;4.60;;;2.25;;
44214;SDS011;29884;47.450;19.124;2023-11-22T04:58:20;7.53;;;2.70;;
44214;SDS011;29884;47.450;19.124;2023-11-22T05:00:46;6.40;;;2.65;;
44214;SDS011;29884;47.450;19.124;2023-11-22T05:03:12;5.78;;;2.70;;
44214;SDS011;29884;47.450;19.124;2023-11-22T05:05:38;3.92;;;2.30;;
44214;SDS011;29884;47.450;19.124;2023-11-22T05:08:03;6.88;;;2.60;;
44214;SDS011;29884;47.450;19.124;2023-11-22T05:10:29;8.57;;;3.35;;
44214;SDS011;29884;47.450;19.124;2023-11-22T05:12:55;8.82;;;4.00;;
44214;SDS011;29884;47.450;19.124;2023-11-22T05:15:24;7.75;;;3.53;;
44214;SDS011;29884;47.450;19.124;2023-11-22T05:17:51;6.88;;;3.42;;
44214;SDS011;29884;47.450;19.124;2023-11-22T05:20:17;9.75;;;3.85;;
44214;SDS011;29884;47.450;19.124;2023-11-22T05:22:42;6.85;;;3.90;;
44214;SDS011;29884;47.450;19.124;2023-11-22T05:25:08;10.15;;;4.85;;
44214;SDS011;29884;47.450;19.124;2023-11-22T05:27:34;12.20;;;4.95;;
44214;SDS011;29884;47.450;19.124;2023-11-22T05:30:00;8.77;;;4.35;;
44214;SDS011;29884;47.450;19.124;2023-11-22T05:32:26;9.75;;;4.60;;
44214;SDS011;29884;47.450;19.124;2023-11-22T05:34:52;12.55;;;5.25;;
44214;SDS011;29884;47.450;19.124;2023-11-22T05:37:18;11.43;;;4.90;;
44214;SDS011;29884;47.450;19.124;2023-11-22T05:39:44;9.80;;;4.47;;
44214;SDS011;29884;47.450;19.124;2023-11-22T05:42:10;7.60;;;4.13;;
44214;SDS011;29884;47.450;19.124;2023-11-22T05:44:36;8.43;;;3.78;;
44214;SDS011;29884;47.450;19.124;2023-11-22T05:47:02;7.20;;;3.35;;
44214;SDS011;29884;47.450;19.124;2023-11-22T05:49:28;6.90;;;3.30;;
44214;SDS011;29884;47.450;19.124;2023-11-22T05:51:54;6.43;;;3.20;;
44214;SDS011;29884;47.450;19.124;2023-11-22T05:54:19;6.00;;;2.42;;
44214;SDS011;29884;47.450;19.124;2023-11-22T05:56:45;7.32;;;2.92;;
44214;SDS011;29884;47.450;19.124;2023-11-22T05:59:11;5.20;;;2.72;;
44214;SDS011;29884;47.450;19.124;2023-11-22T06:01:36;4.53;;;2.00;;
44214;SDS011;29884;47.450;19.124;2023-11-22T06:04:02;3.88;;;2.03;;
44214;SDS011;29884;47.450;19.124;2023-11-22T06:06:28;4.15;;;2.08;;
44214;SDS011;29884;47.450;19.124;2023-11-22T06:08:54;4.22;;;2.05;;
44214;SDS011;29884;47.450;19.124;2023-11-22T06:11:19;4.28;;;2.10;;
44214;SDS011;29884;47.450;19.124;2023-11-22T06:13:46;4.40;;;2.03;;
44214;SDS011;29884;47.450;19.124;2023-11-22T06:16:12;4.28;;;1.95;;
44214;SDS011;29884;47.450;19.124;2023-11-22T06:18:38;3.05;;;1.63;;
44214;SDS011;29884;47.450;19.124;2023-11-22T06:21:08;4.30;;;2.38;;
44214;SDS011;29884;47.450;19.124;2023-11-22T06:23:34;2.92;;;1.65;;
44214;SDS011;29884;47.450;19.124;2023-11-22T06:26:00;3.72;;;2.00;;
44214;SDS011;29884;47.450;19.124;2023-11-22T06:28:25;3.63;;;1.70;;
44214;SDS011;29884;47.450;19.124;2023-11-22T06:30:51;7.60;;;1.83;;
44214;SDS011;29884;47.450;19.124;2023-11-22T06:33:18;2.58;;;1.38;;
44214;SDS011;29884;47.450;19.124;2023-11-22T06:35:43;3.10;;;1.35;;
44214;SDS011;29884;47.450;19.124;2023-11-22T06:38:09;2.72;;;1.60;;
44214;SDS011;29884;47.450;19.124;2023-11-22T06:40:35;3.22;;;1.75;;
44214;SDS011;29884;47.450;19.124;2023-11-22T06:43:01;4.05;;;1.63;;
44214;SDS011;29884;47.450;19.124;2023-11-22T06:45:29;3.90;;;1.40;;
44214;SDS011;29884;47.450;19.124;2023-11-22T06:47:56;4.13;;;1.85;;
44214;SDS011;29884;47.450;19.124;2023-11-22T06:50:23;5.45;;;2.75;;
44214;SDS011;29884;47.450;19.124;2023-11-22T06:52:49;10.52;;;2.75;;
44214;SDS011;29884;47.450;19.124;2023-11-22T06:55:15;3.67;;;1.88;;
44214;SDS011;29884;47.450;19.124;2023-11-22T06:57:41;5.20;;;1.75;;
44214;SDS011;29884;47.450;19.124;2023-11-22T07:00:07;5.65;;;1.90;;
44214;SDS011;29884;47.450;19.124;2023-11-22T07:02:34;5.57;;;1.50;;
44214;SDS011;29884;47.450;19.124;2023-11-22T07:05:01;3.50;;;1.80;;
44214;SDS011;29884;47.450;19.124;2023-11-22T07:07:28;4.28;;;1.88;;
44214;SDS011;29884;47.450;19.124;2023-11-22T07:09:54;3.92;;;1.42;;
44214;SDS011;29884;47.450;19.124;2023-11-22T07:12:23;4.38;;;1.50;;
44214;SDS011;29884;47.450;19.124;2023-11-22T07:14:49;3.65;;;1.85;;
44214;SDS011;29884;47.450;19.124;2023-11-22T07:17:15;3.58;;;1.60;;
44214;SDS011;29884;47.450;19.124;2023-11-22T07:19:42;3.78;;;1.65;;
44214;SDS011;29884;47.450;19.124;2023-11-22T07:22:12;3.35;;;1.83;;
44214;SDS011;29884;47.450;19.124;2023-11-22T07:24:44;3.55;;;1.77;;
44214;SDS011;29884;47.450;19.124;2023-11-22T07:27:12;4.05;;;1.92;;
44214;SDS011;29884;47.450;19.124;2023-11-22T07:29:40;4.93;;;2.00;;
44214;SDS011;29884;47.450;19.124;2023-11-22T07:32:06;3.78;;;1.67;;
44214;SDS011;29884;47.450;19.124;2023-11-22T07:34:34;5.30;;;2.55;;
44214;SDS011;29884;47.450;19.124;2023-11-22T07:37:00;4.10;;;2.08;;
44214;SDS011;29884;47.450;19.124;2023-11-22T07:39:27;4.82;;;2.60;;
44214;SDS011;29884;47.450;19.124;2023-11-22T07:41:53;5.75;;;2.22;;
44214;SDS011;29884;47.450;19.124;2023-11-22T07:44:20;4.45;;;2.13;;
44214;SDS011;29884;47.450;19.124;2023-11-22T07:46:52;4.03;;;2.10;;
44214;SDS011;29884;47.450;19.124;2023-11-22T07:49:21;5.25;;;2.17;;
44214;SDS011;29884;47.450;19.124;2023-11-22T07:51:47;3.03;;;1.98;;
44214;SDS011;29884;47.450;19.124;2023-11-22T07:54:16;4.30;;;2.05;;
44214;SDS011;29884;47.450;19.124;2023-11-22T07:56:43;4.70;;;2.20;;
44214;SDS011;29884;47.450;19.124;2023-11-22T07:59:10;3.38;;;1.88;;
44214;SDS011;29884;47.450;19.124;2023-11-22T08:01:36;4.95;;;1.88;;
44214;SDS011;29884;47.450;19.124;2023-11-22T08:04:03;4.75;;;2.42;;
44214;SDS011;29884;47.450;19.124;2023-11-22T08:06:30;4.35;;;2.28;;
44214;SDS011;29884;47.450;19.124;2023-11-22T08:09:00;3.72;;;2.30;;
44214;SDS011;29884;47.450;19.124;2023-11-22T08:11:26;6.05;;;2.78;;
44214;SDS011;29884;47.450;19.124;2023-11-22T08:13:52;6.93;;;3.03;;
44214;SDS011;29884;47.450;19.124;2023-11-22T08:16:20;3.92;;;2.22;;
44214;SDS011;29884;47.450;19.124;2023-11-22T08:18:45;4.78;;;2.10;;
44214;SDS011;29884;47.450;19.124;2023-11-22T08:21:12;3.95;;;2.38;;
44214;SDS011;29884;47.450;19.124;2023-11-22T08:23:38;2.95;;;1.90;;
44214;SDS011;29884;47.450;19.124;2023-11-22T08:26:04;6.95;;;2.10;;
44214;SDS011;29884;47.450;19.124;2023-11-22T08:28:31;4.38;;;2.30;;
44214;SDS011;29884;47.450;19.124;2023-11-22T08:30:57;3.85;;;1.90;;
44214;SDS011;29884;47.450;19.124;2023-11-22T08:33:23;5.97;;;2.45;;
44214;SDS011;29884;47.450;19.124;2023-11-22T08:35:48;4.10;;;2.00;;
44214;SDS011;29884;47.450;19.124;2023-11-22T08:38:23;4.53;;;2.22;;
44214;SDS011;29884;47.450;19.124;2023-11-22T08:40:50;3.55;;;1.83;;
44214;SDS011;29884;47.450;19.124;2023-11-22T08:43:15;3.50;;;2.22;;
44214;SDS011;29884;47.450;19.124;2023-11-22T08:45:41;6.60;;;2.50;;
44214;SDS011;29884;47.450;19.124;2023-11-22T08:48:09;3.75;;;2.40;;
44214;SDS011;29884;47.450;19.124;2023-11-22T08:50:35;4.93;;;1.85;;
44214;SDS011;29884;47.450;19.124;2023-11-22T08:53:00;6.10;;;2.22;;
44214;SDS011;29884;47.450;19.124;2023-11-22T08:55:26;7.97;;;2.90;;
44214;SDS011;29884;47.450;19.124;2023-11-22T08:57:52;4.65;;;2.22;;
44214;SDS011;29884;47.450;19.124;2023-11-22T09:00:18;4.47;;;1.60;;
44214;SDS011;29884;47.450;19.124;2023-11-22T09:02:50;4.38;;;1.90;;
44214;SDS011;29884;47.450;19.124;2023-11-22T09:05:16;4.97;;;1.52;;
44214;SDS011;29884;47.450;19.124;2023-11-22T09:07:44;4.13;;;2.28;;
44214;SDS011;29884;47.450;19.124;2023-11-22T09:10:10;4.13;;;2.10;;
44214;SDS011;29884;47.450;19.124;2023-11-22T09:12:41;3.55;;;1.98;;
44214;SDS011;29884;47.450;19.124;2023-11-22T09:15:12;3.40;;;1.80;;
44214;SDS011;29884;47.450;19.124;2023-11-22T09:17:41;5.70;;;2.10;;
44214;SDS011;29884;47.450;19.124;2023-11-22T09:20:11;4.13;;;2.65;;
44214;SDS011;29884;47.450;19.124;2023-11-22T09:22:42;4.05;;;2.08;;
44214;SDS011;29884;47.450;19.124;2023-11-22T09:25:12;3.10;;;1.88;;
44214;SDS011;29884;47.450;19.124;2023-11-22T09:27:51;3.03;;;1.67;;
44214;SDS011;29884;47.450;19.124;2023-11-22T09:30:21;3.00;;;1.77;;
44214;SDS011;29884;47.450;19.124;2023-11-22T09:33:07;3.72;;;1.77;;
44214;SDS011;29884;47.450;19.124;2023-11-22T09:35:39;4.13;;;2.20;;
44214;SDS011;29884;47.450;19.124;2023-11-22T09:38:07;3.97;;;2.05;;
44214;SDS011;29884;47.450;19.124;2023-11-22T09:40:36;3.65;;;2.17;;
44214;SDS011;29884;47.450;19.124;2023-11-22T09:43:10;4.53;;;2.30;;
44214;SDS011;29884;47.450;19.124;2023-11-22T09:45:37;5.85;;;2.17;;
44214;SDS011;29884;47.450;19.124;2023-11-22T09:48:06;3.08;;;1.73;;
44214;SDS011;29884;47.450;19.124;2023-11-22T09:53:40;3.28;;;1.70;;
44214;SDS011;29884;47.450;19.124;2023-11-22T09:56:12;4.35;;;1.77;;
44214;SDS011;29884;47.450;19.124;2023-11-22T09:58:40;3.20;;;2.00;;
44214;SDS011;29884;47.450;19.124;2023-11-22T10:01:10;3.60;;;1.92;;
44214;SDS011;29884;47.450;19.124;2023-11-22T10:03:36;2.95;;;1.60;;
44214;SDS011;29884;47.450;19.124;2023-11-22T10:06:03;3.08;;;1.80;;
44214;SDS011;29884;47.450;19.124;2023-11-22T10:08:29;2.78;;;1.70;;
44214;SDS011;29884;47.450;19.124;2023-11-22T10:10:57;3.65;;;2.13;;
44214;SDS011;29884;47.450;19.124;2023-11-22T10:13:23;4.20;;;2.05;;
44214;SDS011;29884;47.450;19.124;2023-11-22T10:15:49;4.32;;;1.98;;
44214;SDS011;29884;47.450;19.124;2023-11-22T10:18:16;4.60;;;2.35;;
44214;SDS011;29884;47.450;19.124;2023-11-22T10:20:43;3.08;;;1.77;;
44214;SDS011;29884;47.450;19.124;2023-11-22T10:23:13;2.47;;;1.70;;
44214;SDS011;29884;47.450;19.124;2023-11-22T10:25:43;3.83;;;1.77;;
44214;SDS011;29884;47.450;19.124;2023-11-22T10:28:20;4.80;;;1.75;;
44214;SDS011;29884;47.450;19.124;2023-11-22T10:30:48;4.45;;;2.10;;
44214;SDS011;29884;47.450;19.124;2023-11-22T10:33:18;4.65;;;1.95;;
44214;SDS011;29884;47.450;19.124;2023-11-22T10:35:48;3.30;;;1.90;;
44214;SDS011;29884;47.450;19.124;2023-11-22T10:38:19;5.20;;;2.15;;
44214;SDS011;29884;47.450;19.124;2023-11-22T10:40:45;2.50;;;1.50;;
44214;SDS011;29884;47.450;19.124;2023-11-22T10:43:13;2.83;;;1.67;;
44214;SDS011;29884;47.450;19.124;2023-11-22T10:45:40;2.42;;;1.63;;
44214;SDS011;29884;47.450;19.124;2023-11-22T10:48:11;4.70;;;2.45;;
44214;SDS011;29884;47.450;19.124;2023-11-22T10:50:41;7.18;;;2.47;;
44214;SDS011;29884;47.450;19.124;2023-11-22T10:53:07;3.35;;;1.70;;
44214;SDS011;29884;47.450;19.124;2023-11-22T10:55:45;5.05;;;2.17;;
44214;SDS011;29884;47.450;19.124;2023-11-22T10:58:13;4.38;;;1.90;;
44214;SDS011;29884;47.450;19.124;2023-11-22T11:00:40;3.47;;;1.98;;
44214;SDS011;29884;47.450;19.124;2023-11-22T11:03:11;2.58;;;1.70;;
44214;SDS011;29884;47.450;19.124;2023-11-22T11:05:41;3.17;;;1.60;;
44214;SDS011;29884;47.450;19.124;2023-11-22T11:08:13;3.08;;;1.80;;
44214;SDS011;29884;47.450;19.124;2023-11-22T11:10:42;6.18;;;2.45;;
44214;SDS011;29884;47.450;19.124;2023-11-22T11:13:10;3.03;;;1.70;;
44214;SDS011;29884;47.450;19.124;2023-11-22T11:15:39;2.90;;;1.90;;
44214;SDS011;29884;47.450;19.124;2023-11-22T11:18:08;2.90;;;1.50;;
44214;SDS011;29884;47.450;19.124;2023-11-22T11:20:53;3.40;;;1.83;;
44214;SDS011;29884;47.450;19.124;2023-11-22T11:23:22;3.55;;;1.52;;
44214;SDS011;29884;47.450;19.124;2023-11-22T11:25:58;5.47;;;1.65;;
44214;SDS011;29884;47.450;19.124;2023-11-22T11:28:43;4.80;;;1.50;;
44214;SDS011;29884;47.450;19.124;2023-11-22T11:31:09;6.13;;;1.67;;
44214;SDS011;29884;47.450;19.124;2023-11-22T11:33:52;3.17;;;1.52;;
44214;SDS011;29884;47.450;19.124;2023-11-22T11:36:30;2.65;;;1.63;;
44214;SDS011;29884;47.450;19.124;2023-11-22T11:39:14;3.42;;;1.73;;
44214;SDS011;29884;47.450;19.124;2023-11-22T11:41:51;2.90;;;1.55;;
44214;SDS011;29884;47.450;19.124;2023-11-22T11:47:22;4.45;;;2.17;;
44214;SDS011;29884;47.450;19.124;2023-11-22T11:49:51;3.42;;;1.98;;
44214;SDS011;29884;47.450;19.124;2023-11-22T11:52:17;4.38;;;1.98;;
44214;SDS011;29884;47.450;19.124;2023-11-22T11:54:43;7.63;;;3.70;;
44214;SDS011;29884;47.450;19.124;2023-11-22T11:57:09;7.78;;;3.38;;
44214;SDS011;29884;47.450;19.124;2023-11-22T11:59:35;5.40;;;2.45;;
44214;SDS011;29884;47.450;19.124;2023-11-22T12:02:01;3.35;;;1.95;;
44214;SDS011;29884;47.450;19.124;2023-11-22T12:04:30;4.28;;;2.40;;
44214;SDS011;29884;47.450;19.124;2023-11-22T12:06:57;3.90;;;2.20;;
44214;SDS011;29884;47.450;19.124;2023-11-22T12:09:23;3.25;;;2.20;;
44214;SDS011;29884;47.450;19.124;2023-11-22T12:11:50;5.18;;;2.33;;
44214;SDS011;29884;47.450;19.124;2023-11-22T12:14:18;3.55;;;1.80;;
44214;SDS011;29884;47.450;19.124;2023-11-22T12:16:45;3.95;;;2.33;;
44214;SDS011;29884;47.450;19.124;2023-11-22T12:19:20;3.65;;;2.53;;
44214;SDS011;29884;47.450;19.124;2023-11-22T12:21:48;5.68;;;3.05;;
44214;SDS011;29884;47.450;19.124;2023-11-22T12:24:14;6.80;;;3.00;;
44214;SDS011;29884;47.450;19.124;2023-11-22T12:26:44;9.93;;;4.00;;
44214;SDS011;29884;47.450;19.124;2023-11-22T12:29:14;4.10;;;2.33;;
44214;SDS011;29884;47.450;19.124;2023-11-22T12:31:46;4.35;;;1.73;;
44214;SDS011;29884;47.450;19.124;2023-11-22T12:34:16;3.47;;;1.73;;
44214;SDS011;29884;47.450;19.124;2023-11-22T12:36:48;3.77;;;2.13;;
44214;SDS011;29884;47.450;19.124;2023-11-22T12:39:14;4.13;;;2.10;;
44214;SDS011;29884;47.450;19.124;2023-11-22T12:44:13;3.85;;;1.50;;
44214;SDS011;29884;47.450;19.124;2023-11-22T12:46:45;5.00;;;1.90;;
44214;SDS011;29884;47.450;19.124;2023-11-22T12:49:15;3.85;;;1.90;;
44214;SDS011;29884;47.450;19.124;2023-11-22T12:51:47;3.55;;;1.77;;
44214;SDS011;29884;47.450;19.124;2023-11-22T12:54:14;3.10;;;1.67;;
44214;SDS011;29884;47.450;19.124;2023-11-22T12:56:41;5.30;;;2.22;;
44214;SDS011;29884;47.450;19.124;2023-11-22T12:59:07;3.33;;;2.03;;
44214;SDS011;29884;47.450;19.124;2023-11-22T13:01:34;4.65;;;1.95;;
44214;SDS011;29884;47.450;19.124;2023-11-22T13:04:00;4.25;;;1.80;;
44214;SDS011;29884;47.450;19.124;2023-11-22T13:06:26;3.60;;;1.80;;
44214;SDS011;29884;47.450;19.124;2023-11-22T13:08:52;3.20;;;1.88;;
44214;SDS011;29884;47.450;19.124;2023-11-22T13:11:20;4.65;;;1.70;;
44214;SDS011;29884;47.450;19.124;2023-11-22T13:13:47;3.97;;;2.42;;
44214;SDS011;29884;47.450;19.124;2023-11-22T13:16:12;4.03;;;2.13;;
44214;SDS011;29884;47.450;19.124;2023-11-22T13:18:41;5.88;;;2.40;;
44214;SDS011;29884;47.450;19.124;2023-11-22T13:21:07;4.72;;;2.42;;
44214;SDS011;29884;47.450;19.124;2023-11-22T13:23:33;5.07;;;2.47;;
44214;SDS011;29884;47.450;19.124;2023-11-22T13:25:59;5.65;;;3.30;;
44214;SDS011;29884;47.450;19.124;2023-11-22T13:28:25;6.72;;;3.30;;
44214;SDS011;29884;47.450;19.124;2023-11-22T13:30:51;5.93;;;3.00;;
44214;SDS011;29884;47.450;19.124;2023-11-22T13:33:17;5.30;;;2.92;;
44214;SDS011;29884;47.450;19.124;2023-11-22T13:35:43;5.28;;;3.20;;
44214;SDS011;29884;47.450;19.124;2023-11-22T13:38:09;5.25;;;3.20;;
44214;SDS011;29884;47.450;19.124;2023-11-22T13:40:38;6.35;;;3.65;;
44214;SDS011;29884;47.450;19.124;2023-11-22T13:43:05;6.35;;;3.65;;
44214;SDS011;29884;47.450;19.124;2023-11-22T13:45:31;7.47;;;3.88;;
44214;SDS011;29884;47.450;19.124;2023-11-22T13:47:58;8.18;;;3.95;;
44214;SDS011;29884;47.450;19.124;2023-11-22T13:50:31;6.10;;;3.58;;
44214;SDS011;29884;47.450;19.124;2023-11-22T13:52:57;5.45;;;3.70;;
44214;SDS011;29884;47.450;19.124;2023-11-22T13:55:24;7.68;;;4.10;;
44214;SDS011;29884;47.450;19.124;2023-11-22T13:57:50;5.05;;;3.38;;
44214;SDS011;29884;47.450;19.124;2023-11-22T14:00:24;5.68;;;3.28;;
44214;SDS011;29884;47.450;19.124;2023-11-22T14:02:58;7.30;;;3.88;;
44214;SDS011;29884;47.450;19.124;2023-11-22T14:05:30;6.93;;;3.63;;
44214;SDS011;29884;47.450;19.124;2023-11-22T14:07:56;7.90;;;3.92;;
44214;SDS011;29884;47.450;19.124;2023-11-22T14:10:22;10.15;;;4.97;;
44214;SDS011;29884;47.450;19.124;2023-11-22T14:12:48;9.07;;;5.13;;
44214;SDS011;29884;47.450;19.124;2023-11-22T14:15:15;6.82;;;4.35;;
44214;SDS011;29884;47.450;19.124;2023-11-22T14:17:41;5.68;;;3.92;;
44214;SDS011;29884;47.450;19.124;2023-11-22T14:22:36;6.88;;;4.70;;
44214;SDS011;29884;47.450;19.124;2023-11-22T14:25:02;6.50;;;4.45;;
44214;SDS011;29884;47.450;19.124;2023-11-22T14:27:32;8.63;;;5.65;;
44214;SDS011;29884;47.450;19.124;2023-11-22T14:29:59;7.03;;;4.90;;
44214;SDS011;29884;47.450;19.124;2023-11-22T14:32:25;6.28;;;4.40;;
44214;SDS011;29884;47.450;19.124;2023-11-22T14:34:51;6.15;;;3.97;;
44214;SDS011;29884;47.450;19.124;2023-11-22T14:37:18;6.55;;;4.50;;
44214;SDS011;29884;47.450;19.124;2023-11-22T14:39:44;5.68;;;3.95;;
44214;SDS011;29884;47.450;19.124;2023-11-22T14:42:10;5.63;;;3.70;;